sensor_id;sensor_type;location;lat;lon;timestamp;P1;durP1;ratioP1;P2;durP2;ratioP2
78120;SDS011;67585;44.802;10.332;2023-02-28T00:00:21;10.70;;;2.03;;
78120;SDS011;67585;44.802;10.332;2023-02-28T00:02:47;7.85;;;1.50;;
78120;SDS011;67585;44.802;10.332;2023-02-28T00:05:14;7.95;;;2.58;;
78120;SDS011;67585;44.802;10.332;2023-02-28T00:07:42;13.82;;;2.78;;
78120;SDS011;67585;44.802;10.332;2023-02-28T00:10:08;10.55;;;1.98;;
78120;SDS011;67585;44.802;10.332;2023-02-28T00:12:36;8.60;;;1.52;;
78120;SDS011;67585;44.802;10.332;2023-02-28T00:15:04;11.45;;;2.33;;
78120;SDS011;67585;44.802;10.332;2023-02-28T00:17:31;9.30;;;1.98;;
78120;SDS011;67585;44.802;10.332;2023-02-28T00:19:56;6.70;;;2.15;;
78120;SDS011;67585;44.802;10.332;2023-02-28T00:22:26;11.32;;;2.10;;
78120;SDS011;67585;44.802;10.332;2023-02-28T00:24:52;12.07;;;2.60;;
78120;SDS011;67585;44.802;10.332;2023-02-28T00:27:17;9.65;;;1.67;;
78120;SDS011;67585;44.802;10.332;2023-02-28T00:29:43;7.75;;;2.90;;
78120;SDS011;67585;44.802;10.332;2023-02-28T00:32:08;11.98;;;3.25;;
78120;SDS011;67585;44.802;10.332;2023-02-28T00:34:33;10.82;;;2.13;;
78120;SDS011;67585;44.802;10.332;2023-02-28T00:37:03;7.53;;;2.13;;
78120;SDS011;67585;44.802;10.332;2023-02-28T00:39:36;9.05;;;2.35;;
78120;SDS011;67585;44.802;10.332;2023-02-28T00:42:04;14.13;;;2.22;;
78120;SDS011;67585;44.802;10.332;2023-02-28T00:44:30;14.10;;;2.05;;
78120;SDS011;67585;44.802;10.332;2023-02-28T00:46:56;7.65;;;2.33;;
78120;SDS011;67585;44.802;10.332;2023-02-28T00:49:22;10.18;;;2.10;;
78120;SDS011;67585;44.802;10.332;2023-02-28T00:51:48;11.75;;;2.58;;
78120;SDS011;67585;44.802;10.332;2023-02-28T00:54:15;10.07;;;2.08;;
78120;SDS011;67585;44.802;10.332;2023-02-28T00:56:41;11.68;;;2.75;;
78120;SDS011;67585;44.802;10.332;2023-02-28T00:59:06;8.95;;;1.73;;
78120;SDS011;67585;44.802;10.332;2023-02-28T01:01:31;7.43;;;1.58;;
78120;SDS011;67585;44.802;10.332;2023-02-28T01:03:57;8.30;;;1.65;;
78120;SDS011;67585;44.802;10.332;2023-02-28T01:06:22;12.95;;;2.45;;
78120;SDS011;67585;44.802;10.332;2023-02-28T01:08:48;13.82;;;2.25;;
78120;SDS011;67585;44.802;10.332;2023-02-28T01:11:15;7.15;;;1.52;;
78120;SDS011;67585;44.802;10.332;2023-02-28T01:13:42;8.13;;;1.75;;
78120;SDS011;67585;44.802;10.332;2023-02-28T01:16:09;10.68;;;2.08;;
78120;SDS011;67585;44.802;10.332;2023-02-28T01:18:35;11.50;;;1.92;;
78120;SDS011;67585;44.802;10.332;2023-02-28T01:21:04;12.65;;;2.28;;
78120;SDS011;67585;44.802;10.332;2023-02-28T01:23:31;7.45;;;1.90;;
78120;SDS011;67585;44.802;10.332;2023-02-28T01:25:57;8.90;;;2.05;;
78120;SDS011;67585;44.802;10.332;2023-02-28T01:28:22;8.52;;;2.30;;
78120;SDS011;67585;44.802;10.332;2023-02-28T01:30:50;12.27;;;2.65;;
78120;SDS011;67585;44.802;10.332;2023-02-28T01:33:16;6.72;;;1.55;;
78120;SDS011;67585;44.802;10.332;2023-02-28T01:35:41;9.00;;;3.20;;
78120;SDS011;67585;44.802;10.332;2023-02-28T01:38:07;8.25;;;2.28;;
78120;SDS011;67585;44.802;10.332;2023-02-28T01:40:32;11.10;;;2.28;;
78120;SDS011;67585;44.802;10.332;2023-02-28T01:42:58;9.13;;;1.67;;
78120;SDS011;67585;44.802;10.332;2023-02-28T01:45:25;6.93;;;2.00;;
78120;SDS011;67585;44.802;10.332;2023-02-28T01:47:54;10.45;;;2.78;;
78120;SDS011;67585;44.802;10.332;2023-02-28T01:50:25;8.30;;;1.63;;
78120;SDS011;67585;44.802;10.332;2023-02-28T01:52:55;11.02;;;2.85;;
78120;SDS011;67585;44.802;10.332;2023-02-28T01:55:24;7.03;;;2.00;;
78120;SDS011;67585;44.802;10.332;2023-02-28T01:57:54;9.00;;;2.17;;
78120;SDS011;67585;44.802;10.332;2023-02-28T02:00:23;11.85;;;1.95;;
78120;SDS011;67585;44.802;10.332;2023-02-28T02:02:54;7.68;;;1.70;;
78120;SDS011;67585;44.802;10.332;2023-02-28T02:05:23;9.15;;;2.45;;
78120;SDS011;67585;44.802;10.332;2023-02-28T02:07:57;6.32;;;1.95;;
78120;SDS011;67585;44.802;10.332;2023-02-28T02:10:42;6.07;;;1.70;;
78120;SDS011;67585;44.802;10.332;2023-02-28T02:15:56;8.55;;;1.90;;
78120;SDS011;67585;44.802;10.332;2023-02-28T02:26:43;5.60;;;1.75;;
78120;SDS011;67585;44.802;10.332;2023-02-28T02:36:51;6.70;;;1.63;;
78120;SDS011;67585;44.802;10.332;2023-02-28T02:48:03;6.20;;;1.98;;
78120;SDS011;67585;44.802;10.332;2023-02-28T02:50:39;11.90;;;2.92;;
78120;SDS011;67585;44.802;10.332;2023-02-28T02:53:09;5.93;;;1.45;;
78120;SDS011;67585;44.802;10.332;2023-02-28T02:55:37;8.82;;;2.20;;
78120;SDS011;67585;44.802;10.332;2023-02-28T02:58:07;8.52;;;2.40;;
78120;SDS011;67585;44.802;10.332;2023-02-28T03:00:38;7.07;;;1.75;;
78120;SDS011;67585;44.802;10.332;2023-02-28T03:03:08;5.93;;;1.92;;
78120;SDS011;67585;44.802;10.332;2023-02-28T03:05:39;6.13;;;1.95;;
78120;SDS011;67585;44.802;10.332;2023-02-28T03:08:10;6.78;;;1.67;;
78120;SDS011;67585;44.802;10.332;2023-02-28T03:10:40;8.38;;;1.83;;
78120;SDS011;67585;44.802;10.332;2023-02-28T03:15:47;9.45;;;2.78;;
78120;SDS011;67585;44.802;10.332;2023-02-28T03:18:24;7.30;;;1.25;;
78120;SDS011;67585;44.802;10.332;2023-02-28T03:26:24;7.80;;;2.10;;
78120;SDS011;67585;44.802;10.332;2023-02-28T03:34:24;6.53;;;1.25;;
78120;SDS011;67585;44.802;10.332;2023-02-28T03:36:55;8.05;;;2.45;;
78120;SDS011;67585;44.802;10.332;2023-02-28T03:39:34;10.68;;;3.00;;
78120;SDS011;67585;44.802;10.332;2023-02-28T03:42:06;5.50;;;2.20;;
78120;SDS011;67585;44.802;10.332;2023-02-28T03:44:38;9.80;;;2.25;;
78120;SDS011;67585;44.802;10.332;2023-02-28T03:47:12;8.90;;;2.70;;
78120;SDS011;67585;44.802;10.332;2023-02-28T03:49:45;7.93;;;2.00;;
78120;SDS011;67585;44.802;10.332;2023-02-28T03:54:43;5.93;;;1.67;;
78120;SDS011;67585;44.802;10.332;2023-02-28T03:57:13;7.60;;;1.80;;
78120;SDS011;67585;44.802;10.332;2023-02-28T03:59:47;7.07;;;2.40;;
78120;SDS011;67585;44.802;10.332;2023-02-28T04:02:19;5.82;;;1.50;;
78120;SDS011;67585;44.802;10.332;2023-02-28T04:04:45;9.60;;;2.17;;
78120;SDS011;67585;44.802;10.332;2023-02-28T04:07:13;7.97;;;1.70;;
78120;SDS011;67585;44.802;10.332;2023-02-28T04:09:39;6.47;;;2.03;;
78120;SDS011;67585;44.802;10.332;2023-02-28T04:12:05;4.70;;;1.73;;
78120;SDS011;67585;44.802;10.332;2023-02-28T04:14:31;9.30;;;2.30;;
78120;SDS011;67585;44.802;10.332;2023-02-28T04:16:56;7.43;;;2.20;;
78120;SDS011;67585;44.802;10.332;2023-02-28T04:19:22;9.07;;;2.60;;
78120;SDS011;67585;44.802;10.332;2023-02-28T04:21:48;6.68;;;2.17;;
78120;SDS011;67585;44.802;10.332;2023-02-28T04:24:25;9.25;;;1.70;;
78120;SDS011;67585;44.802;10.332;2023-02-28T04:26:53;6.38;;;1.52;;
78120;SDS011;67585;44.802;10.332;2023-02-28T04:29:22;7.25;;;1.27;;
78120;SDS011;67585;44.802;10.332;2023-02-28T04:31:49;6.13;;;1.90;;
78120;SDS011;67585;44.802;10.332;2023-02-28T04:34:15;11.40;;;2.88;;
78120;SDS011;67585;44.802;10.332;2023-02-28T04:36:41;8.65;;;1.80;;
78120;SDS011;67585;44.802;10.332;2023-02-28T04:39:07;7.97;;;2.47;;
78120;SDS011;67585;44.802;10.332;2023-02-28T04:44:00;7.72;;;2.50;;
78120;SDS011;67585;44.802;10.332;2023-02-28T04:46:25;8.13;;;2.30;;
78120;SDS011;67585;44.802;10.332;2023-02-28T04:48:50;5.78;;;0.90;;
78120;SDS011;67585;44.802;10.332;2023-02-28T04:51:16;7.68;;;1.85;;
78120;SDS011;67585;44.802;10.332;2023-02-28T04:56:10;5.47;;;1.10;;
78120;SDS011;67585;44.802;10.332;2023-02-28T04:58:37;6.70;;;2.00;;
78120;SDS011;67585;44.802;10.332;2023-02-28T05:01:16;9.65;;;2.10;;
78120;SDS011;67585;44.802;10.332;2023-02-28T05:03:43;8.88;;;1.58;;
78120;SDS011;67585;44.802;10.332;2023-02-28T05:06:09;9.63;;;2.58;;
78120;SDS011;67585;44.802;10.332;2023-02-28T05:08:35;6.05;;;1.90;;
78120;SDS011;67585;44.802;10.332;2023-02-28T05:11:01;5.75;;;2.08;;
78120;SDS011;67585;44.802;10.332;2023-02-28T05:13:27;7.35;;;2.30;;
78120;SDS011;67585;44.802;10.332;2023-02-28T05:15:54;9.35;;;3.17;;
78120;SDS011;67585;44.802;10.332;2023-02-28T05:18:19;5.93;;;2.28;;
78120;SDS011;67585;44.802;10.332;2023-02-28T05:20:45;9.35;;;1.73;;
78120;SDS011;67585;44.802;10.332;2023-02-28T05:23:11;11.30;;;2.90;;
78120;SDS011;67585;44.802;10.332;2023-02-28T05:28:04;7.28;;;1.65;;
78120;SDS011;67585;44.802;10.332;2023-02-28T05:30:29;11.02;;;2.40;;
78120;SDS011;67585;44.802;10.332;2023-02-28T05:32:55;6.32;;;2.05;;
78120;SDS011;67585;44.802;10.332;2023-02-28T05:35:20;7.88;;;2.92;;
78120;SDS011;67585;44.802;10.332;2023-02-28T05:37:46;7.72;;;3.03;;
78120;SDS011;67585;44.802;10.332;2023-02-28T05:40:11;6.63;;;2.05;;
78120;SDS011;67585;44.802;10.332;2023-02-28T05:42:37;6.15;;;1.60;;
78120;SDS011;67585;44.802;10.332;2023-02-28T05:45:05;8.15;;;3.33;;
78120;SDS011;67585;44.802;10.332;2023-02-28T05:47:32;9.80;;;2.85;;
78120;SDS011;67585;44.802;10.332;2023-02-28T05:49:57;7.25;;;1.90;;
78120;SDS011;67585;44.802;10.332;2023-02-28T05:52:23;10.52;;;2.20;;
78120;SDS011;67585;44.802;10.332;2023-02-28T05:54:48;7.43;;;2.67;;
78120;SDS011;67585;44.802;10.332;2023-02-28T05:57:14;9.60;;;2.50;;
78120;SDS011;67585;44.802;10.332;2023-02-28T05:59:40;7.20;;;2.08;;
78120;SDS011;67585;44.802;10.332;2023-02-28T06:02:06;8.20;;;2.78;;
78120;SDS011;67585;44.802;10.332;2023-02-28T06:04:37;7.00;;;2.25;;
78120;SDS011;67585;44.802;10.332;2023-02-28T06:07:02;10.38;;;1.80;;
78120;SDS011;67585;44.802;10.332;2023-02-28T06:09:28;7.93;;;1.98;;
78120;SDS011;67585;44.802;10.332;2023-02-28T06:11:54;10.85;;;2.47;;
78120;SDS011;67585;44.802;10.332;2023-02-28T06:14:19;7.07;;;1.75;;
78120;SDS011;67585;44.802;10.332;2023-02-28T06:16:45;12.60;;;2.72;;
78120;SDS011;67585;44.802;10.332;2023-02-28T06:19:11;10.63;;;2.03;;
78120;SDS011;67585;44.802;10.332;2023-02-28T06:21:37;7.50;;;2.50;;
78120;SDS011;67585;44.802;10.332;2023-02-28T06:24:03;11.73;;;2.90;;
78120;SDS011;67585;44.802;10.332;2023-02-28T06:26:29;9.77;;;2.88;;
78120;SDS011;67585;44.802;10.332;2023-02-28T06:28:55;9.35;;;3.20;;
78120;SDS011;67585;44.802;10.332;2023-02-28T06:31:21;8.52;;;2.65;;
78120;SDS011;67585;44.802;10.332;2023-02-28T06:33:48;8.88;;;2.30;;
78120;SDS011;67585;44.802;10.332;2023-02-28T06:36:14;11.40;;;3.10;;
78120;SDS011;67585;44.802;10.332;2023-02-28T06:38:41;9.65;;;2.60;;
78120;SDS011;67585;44.802;10.332;2023-02-28T06:41:07;8.63;;;3.22;;
78120;SDS011;67585;44.802;10.332;2023-02-28T06:43:34;9.20;;;3.10;;
78120;SDS011;67585;44.802;10.332;2023-02-28T06:46:03;8.48;;;2.85;;
78120;SDS011;67585;44.802;10.332;2023-02-28T06:48:30;9.35;;;2.38;;
78120;SDS011;67585;44.802;10.332;2023-02-28T06:51:07;9.88;;;2.63;;
78120;SDS011;67585;44.802;10.332;2023-02-28T06:53:34;12.60;;;3.78;;
78120;SDS011;67585;44.802;10.332;2023-02-28T06:55:59;6.85;;;2.13;;
78120;SDS011;67585;44.802;10.332;2023-02-28T06:58:29;9.85;;;3.20;;
78120;SDS011;67585;44.802;10.332;2023-02-28T07:00:54;9.30;;;3.58;;
78120;SDS011;67585;44.802;10.332;2023-02-28T07:03:19;7.85;;;2.25;;
78120;SDS011;67585;44.802;10.332;2023-02-28T07:05:45;6.63;;;1.88;;
78120;SDS011;67585;44.802;10.332;2023-02-28T07:08:10;7.68;;;2.53;;
78120;SDS011;67585;44.802;10.332;2023-02-28T07:10:39;7.95;;;2.40;;
78120;SDS011;67585;44.802;10.332;2023-02-28T07:13:05;9.50;;;2.70;;
78120;SDS011;67585;44.802;10.332;2023-02-28T07:15:32;7.40;;;2.20;;
78120;SDS011;67585;44.802;10.332;2023-02-28T07:18:01;7.68;;;2.50;;
78120;SDS011;67585;44.802;10.332;2023-02-28T07:20:26;7.93;;;3.15;;
78120;SDS011;67585;44.802;10.332;2023-02-28T07:22:52;8.73;;;2.83;;
78120;SDS011;67585;44.802;10.332;2023-02-28T07:25:24;10.27;;;2.42;;
78120;SDS011;67585;44.802;10.332;2023-02-28T07:27:51;14.45;;;3.58;;
78120;SDS011;67585;44.802;10.332;2023-02-28T07:30:17;10.50;;;3.58;;
78120;SDS011;67585;44.802;10.332;2023-02-28T07:32:43;8.50;;;2.90;;
78120;SDS011;67585;44.802;10.332;2023-02-28T07:35:09;10.88;;;3.00;;
78120;SDS011;67585;44.802;10.332;2023-02-28T07:37:34;10.55;;;2.95;;
78120;SDS011;67585;44.802;10.332;2023-02-28T07:40:06;7.85;;;2.78;;
78120;SDS011;67585;44.802;10.332;2023-02-28T07:42:33;10.05;;;3.53;;
78120;SDS011;67585;44.802;10.332;2023-02-28T07:45:00;8.00;;;2.60;;
78120;SDS011;67585;44.802;10.332;2023-02-28T07:47:26;8.27;;;2.63;;
78120;SDS011;67585;44.802;10.332;2023-02-28T07:49:51;8.75;;;2.70;;
78120;SDS011;67585;44.802;10.332;2023-02-28T07:52:17;9.93;;;2.47;;
78120;SDS011;67585;44.802;10.332;2023-02-28T07:54:42;8.90;;;3.35;;
78120;SDS011;67585;44.802;10.332;2023-02-28T07:57:07;10.82;;;3.22;;
78120;SDS011;67585;44.802;10.332;2023-02-28T07:59:33;9.70;;;2.92;;
78120;SDS011;67585;44.802;10.332;2023-02-28T08:01:58;7.57;;;2.83;;
78120;SDS011;67585;44.802;10.332;2023-02-28T08:04:24;12.52;;;3.30;;
78120;SDS011;67585;44.802;10.332;2023-02-28T08:06:50;11.55;;;3.95;;
78120;SDS011;67585;44.802;10.332;2023-02-28T08:09:18;6.97;;;3.17;;
78120;SDS011;67585;44.802;10.332;2023-02-28T08:11:43;12.32;;;3.13;;
78120;SDS011;67585;44.802;10.332;2023-02-28T08:14:09;8.60;;;2.65;;
78120;SDS011;67585;44.802;10.332;2023-02-28T08:16:34;9.43;;;3.22;;
78120;SDS011;67585;44.802;10.332;2023-02-28T08:19:00;9.10;;;2.00;;
78120;SDS011;67585;44.802;10.332;2023-02-28T08:21:25;9.00;;;3.53;;
78120;SDS011;67585;44.802;10.332;2023-02-28T08:23:51;8.35;;;2.60;;
78120;SDS011;67585;44.802;10.332;2023-02-28T08:26:16;5.55;;;2.15;;
78120;SDS011;67585;44.802;10.332;2023-02-28T08:28:43;8.30;;;2.20;;
78120;SDS011;67585;44.802;10.332;2023-02-28T08:31:10;9.25;;;2.38;;
78120;SDS011;67585;44.802;10.332;2023-02-28T08:33:37;11.65;;;2.78;;
78120;SDS011;67585;44.802;10.332;2023-02-28T08:36:06;12.68;;;3.38;;
78120;SDS011;67585;44.802;10.332;2023-02-28T08:38:33;10.02;;;3.47;;
78120;SDS011;67585;44.802;10.332;2023-02-28T08:40:59;7.32;;;2.25;;
78120;SDS011;67585;44.802;10.332;2023-02-28T08:43:26;10.95;;;2.97;;
78120;SDS011;67585;44.802;10.332;2023-02-28T08:45:52;9.35;;;2.80;;
78120;SDS011;67585;44.802;10.332;2023-02-28T08:48:19;8.25;;;2.58;;
78120;SDS011;67585;44.802;10.332;2023-02-28T08:50:44;8.60;;;2.83;;
78120;SDS011;67585;44.802;10.332;2023-02-28T08:53:19;7.13;;;3.15;;
78120;SDS011;67585;44.802;10.332;2023-02-28T08:55:44;11.43;;;2.88;;
78120;SDS011;67585;44.802;10.332;2023-02-28T08:58:11;10.02;;;2.78;;
78120;SDS011;67585;44.802;10.332;2023-02-28T09:00:36;14.27;;;3.00;;
78120;SDS011;67585;44.802;10.332;2023-02-28T09:03:01;9.85;;;3.97;;
78120;SDS011;67585;44.802;10.332;2023-02-28T09:05:28;11.57;;;3.67;;
78120;SDS011;67585;44.802;10.332;2023-02-28T09:07:54;9.15;;;3.70;;
78120;SDS011;67585;44.802;10.332;2023-02-28T09:10:20;18.38;;;3.92;;
78120;SDS011;67585;44.802;10.332;2023-02-28T09:12:45;11.07;;;3.72;;
78120;SDS011;67585;44.802;10.332;2023-02-28T09:15:12;9.20;;;3.35;;
78120;SDS011;67585;44.802;10.332;2023-02-28T09:17:38;13.38;;;3.50;;
78120;SDS011;67585;44.802;10.332;2023-02-28T09:20:04;8.38;;;2.55;;
78120;SDS011;67585;44.802;10.332;2023-02-28T09:22:30;12.20;;;3.67;;
78120;SDS011;67585;44.802;10.332;2023-02-28T09:24:55;9.60;;;4.25;;
78120;SDS011;67585;44.802;10.332;2023-02-28T09:27:21;9.18;;;3.20;;
78120;SDS011;67585;44.802;10.332;2023-02-28T09:29:46;9.82;;;3.03;;
78120;SDS011;67585;44.802;10.332;2023-02-28T09:32:12;13.75;;;3.17;;
78120;SDS011;67585;44.802;10.332;2023-02-28T09:34:37;7.82;;;3.45;;
78120;SDS011;67585;44.802;10.332;2023-02-28T09:37:03;9.63;;;3.55;;
78120;SDS011;67585;44.802;10.332;2023-02-28T09:39:28;10.57;;;3.65;;
78120;SDS011;67585;44.802;10.332;2023-02-28T09:41:54;11.75;;;3.10;;
78120;SDS011;67585;44.802;10.332;2023-02-28T09:44:28;12.05;;;3.78;;
78120;SDS011;67585;44.802;10.332;2023-02-28T09:47:25;10.75;;;3.53;;
78120;SDS011;67585;44.802;10.332;2023-02-28T09:49:51;9.48;;;3.55;;
78120;SDS011;67585;44.802;10.332;2023-02-28T09:52:18;10.30;;;4.05;;
78120;SDS011;67585;44.802;10.332;2023-02-28T09:54:46;11.77;;;4.15;;
78120;SDS011;67585;44.802;10.332;2023-02-28T09:57:27;11.02;;;3.40;;
78120;SDS011;67585;44.802;10.332;2023-02-28T10:05:41;10.98;;;3.35;;
78120;SDS011;67585;44.802;10.332;2023-02-28T10:08:16;14.95;;;3.40;;
78120;SDS011;67585;44.802;10.332;2023-02-28T10:11:00;12.70;;;4.10;;
78120;SDS011;67585;44.802;10.332;2023-02-28T10:19:18;13.55;;;4.25;;
78120;SDS011;67585;44.802;10.332;2023-02-28T10:24:35;14.13;;;3.45;;
78120;SDS011;67585;44.802;10.332;2023-02-28T10:29:45;12.35;;;3.85;;
78120;SDS011;67585;44.802;10.332;2023-02-28T10:32:17;11.13;;;3.10;;
78120;SDS011;67585;44.802;10.332;2023-02-28T10:34:44;9.07;;;3.08;;
78120;SDS011;67585;44.802;10.332;2023-02-28T10:37:15;9.07;;;2.78;;
78120;SDS011;67585;44.802;10.332;2023-02-28T10:39:42;10.02;;;3.92;;
78120;SDS011;67585;44.802;10.332;2023-02-28T10:44:44;14.38;;;3.42;;
78120;SDS011;67585;44.802;10.332;2023-02-28T10:47:16;8.85;;;3.75;;
78120;SDS011;67585;44.802;10.332;2023-02-28T10:49:48;9.70;;;3.85;;
78120;SDS011;67585;44.802;10.332;2023-02-28T10:52:15;10.35;;;3.63;;
78120;SDS011;67585;44.802;10.332;2023-02-28T10:55:13;10.45;;;3.28;;
78120;SDS011;67585;44.802;10.332;2023-02-28T10:57:48;11.98;;;3.30;;
78120;SDS011;67585;44.802;10.332;2023-02-28T11:00:18;12.00;;;3.75;;
78120;SDS011;67585;44.802;10.332;2023-02-28T11:02:46;14.38;;;2.88;;
78120;SDS011;67585;44.802;10.332;2023-02-28T11:07:55;12.40;;;3.42;;
78120;SDS011;67585;44.802;10.332;2023-02-28T11:10:36;12.82;;;3.58;;
78120;SDS011;67585;44.802;10.332;2023-02-28T11:13:02;9.40;;;3.58;;
78120;SDS011;67585;44.802;10.332;2023-02-28T11:15:34;9.80;;;3.15;;
78120;SDS011;67585;44.802;10.332;2023-02-28T11:20:59;10.35;;;3.10;;
78120;SDS011;67585;44.802;10.332;2023-02-28T11:23:27;11.15;;;4.15;;
78120;SDS011;67585;44.802;10.332;2023-02-28T11:25:57;10.43;;;2.55;;
78120;SDS011;67585;44.802;10.332;2023-02-28T11:28:32;11.57;;;3.88;;
78120;SDS011;67585;44.802;10.332;2023-02-28T11:33:43;13.55;;;3.45;;
78120;SDS011;67585;44.802;10.332;2023-02-28T11:36:14;11.10;;;3.95;;
78120;SDS011;67585;44.802;10.332;2023-02-28T11:38:41;10.88;;;3.95;;
78120;SDS011;67585;44.802;10.332;2023-02-28T11:41:15;14.00;;;3.88;;
78120;SDS011;67585;44.802;10.332;2023-02-28T11:57:29;11.15;;;3.53;;
78120;SDS011;67585;44.802;10.332;2023-02-28T12:05:45;13.63;;;3.63;;
78120;SDS011;67585;44.802;10.332;2023-02-28T12:08:18;9.85;;;3.00;;
78120;SDS011;67585;44.802;10.332;2023-02-28T12:11:33;13.48;;;3.88;;
78120;SDS011;67585;44.802;10.332;2023-02-28T12:17:03;12.35;;;4.93;;
78120;SDS011;67585;44.802;10.332;2023-02-28T12:19:54;9.93;;;3.90;;
78120;SDS011;67585;44.802;10.332;2023-02-28T12:22:40;13.98;;;5.10;;
78120;SDS011;67585;44.802;10.332;2023-02-28T12:28:35;9.05;;;3.78;;
78120;SDS011;67585;44.802;10.332;2023-02-28T12:31:26;11.90;;;4.15;;
78120;SDS011;67585;44.802;10.332;2023-02-28T12:33:57;12.20;;;3.97;;
78120;SDS011;67585;44.802;10.332;2023-02-28T12:36:48;16.10;;;3.88;;
78120;SDS011;67585;44.802;10.332;2023-02-28T12:39:19;11.90;;;3.58;;
78120;SDS011;67585;44.802;10.332;2023-02-28T12:46:50;10.98;;;4.38;;
78120;SDS011;67585;44.802;10.332;2023-02-28T12:49:31;11.75;;;5.43;;
78120;SDS011;67585;44.802;10.332;2023-02-28T12:52:04;12.68;;;5.35;;
78120;SDS011;67585;44.802;10.332;2023-02-28T12:54:42;15.45;;;5.47;;
78120;SDS011;67585;44.802;10.332;2023-02-28T13:00:12;12.85;;;4.47;;
78120;SDS011;67585;44.802;10.332;2023-02-28T13:11:01;12.48;;;4.35;;
78120;SDS011;67585;44.802;10.332;2023-02-28T13:13:28;15.10;;;5.70;;
78120;SDS011;67585;44.802;10.332;2023-02-28T13:18:32;12.90;;;5.18;;
78120;SDS011;67585;44.802;10.332;2023-02-28T13:21:27;15.25;;;5.05;;
78120;SDS011;67585;44.802;10.332;2023-02-28T13:26:22;12.07;;;4.68;;
78120;SDS011;67585;44.802;10.332;2023-02-28T13:34:41;19.58;;;5.75;;
78120;SDS011;67585;44.802;10.332;2023-02-28T13:47:41;11.65;;;4.55;;
78120;SDS011;67585;44.802;10.332;2023-02-28T13:50:35;15.80;;;4.43;;
78120;SDS011;67585;44.802;10.332;2023-02-28T14:11:56;13.38;;;5.40;;
78120;SDS011;67585;44.802;10.332;2023-02-28T14:16:59;13.90;;;4.35;;
78120;SDS011;67585;44.802;10.332;2023-02-28T14:19:27;14.02;;;5.53;;
78120;SDS011;67585;44.802;10.332;2023-02-28T14:27:50;12.55;;;4.80;;
78120;SDS011;67585;44.802;10.332;2023-02-28T14:33:20;16.38;;;5.85;;
78120;SDS011;67585;44.802;10.332;2023-02-28T14:38:50;12.20;;;5.38;;
78120;SDS011;67585;44.802;10.332;2023-02-28T14:41:22;11.13;;;5.05;;
78120;SDS011;67585;44.802;10.332;2023-02-28T14:44:03;13.18;;;4.97;;
78120;SDS011;67585;44.802;10.332;2023-02-28T14:46:59;15.00;;;5.70;;
78120;SDS011;67585;44.802;10.332;2023-02-28T14:54:42;12.13;;;4.72;;
78120;SDS011;67585;44.802;10.332;2023-02-28T15:00:06;16.38;;;6.18;;
78120;SDS011;67585;44.802;10.332;2023-02-28T15:02:39;16.95;;;5.45;;
78120;SDS011;67585;44.802;10.332;2023-02-28T15:07:42;17.42;;;6.38;;
78120;SDS011;67585;44.802;10.332;2023-02-28T15:10:24;14.98;;;5.55;;
78120;SDS011;67585;44.802;10.332;2023-02-28T15:13:01;13.43;;;5.72;;
78120;SDS011;67585;44.802;10.332;2023-02-28T15:18:07;12.20;;;6.07;;
78120;SDS011;67585;44.802;10.332;2023-02-28T15:20:41;15.57;;;6.32;;
78120;SDS011;67585;44.802;10.332;2023-02-28T15:23:09;18.35;;;6.25;;
78120;SDS011;67585;44.802;10.332;2023-02-28T15:25:35;17.55;;;6.32;;
78120;SDS011;67585;44.802;10.332;2023-02-28T15:28:02;19.73;;;6.82;;
78120;SDS011;67585;44.802;10.332;2023-02-28T15:30:28;20.08;;;7.72;;
78120;SDS011;67585;44.802;10.332;2023-02-28T15:33:30;13.88;;;5.95;;
78120;SDS011;67585;44.802;10.332;2023-02-28T15:35:50;16.83;;;6.95;;
78120;SDS011;67585;44.802;10.332;2023-02-28T15:38:17;15.98;;;7.22;;
78120;SDS011;67585;44.802;10.332;2023-02-28T15:40:51;16.98;;;6.63;;
78120;SDS011;67585;44.802;10.332;2023-02-28T15:43:22;14.90;;;6.15;;
78120;SDS011;67585;44.802;10.332;2023-02-28T15:46:01;17.25;;;6.28;;
78120;SDS011;67585;44.802;10.332;2023-02-28T15:48:36;17.67;;;6.05;;
78120;SDS011;67585;44.802;10.332;2023-02-28T15:51:36;13.68;;;5.85;;
78120;SDS011;67585;44.802;10.332;2023-02-28T15:56:42;16.15;;;6.18;;
78120;SDS011;67585;44.802;10.332;2023-02-28T15:59:19;14.10;;;5.65;;
78120;SDS011;67585;44.802;10.332;2023-02-28T16:02:01;15.35;;;4.82;;
78120;SDS011;67585;44.802;10.332;2023-02-28T16:07:23;16.67;;;6.35;;
78120;SDS011;67585;44.802;10.332;2023-02-28T16:09:49;17.73;;;6.45;;
78120;SDS011;67585;44.802;10.332;2023-02-28T16:12:15;16.90;;;7.05;;
78120;SDS011;67585;44.802;10.332;2023-02-28T16:14:41;15.82;;;6.03;;
78120;SDS011;67585;44.802;10.332;2023-02-28T16:17:09;14.52;;;5.35;;
78120;SDS011;67585;44.802;10.332;2023-02-28T16:19:44;12.38;;;6.07;;
78120;SDS011;67585;44.802;10.332;2023-02-28T16:22:10;17.05;;;6.85;;
78120;SDS011;67585;44.802;10.332;2023-02-28T16:24:35;17.48;;;6.78;;
78120;SDS011;67585;44.802;10.332;2023-02-28T16:27:01;16.50;;;7.15;;
78120;SDS011;67585;44.802;10.332;2023-02-28T16:29:31;15.73;;;5.90;;
78120;SDS011;67585;44.802;10.332;2023-02-28T16:31:59;15.65;;;6.38;;
78120;SDS011;67585;44.802;10.332;2023-02-28T16:34:26;15.05;;;5.15;;
78120;SDS011;67585;44.802;10.332;2023-02-28T16:36:52;16.80;;;5.93;;
78120;SDS011;67585;44.802;10.332;2023-02-28T16:39:17;17.17;;;5.82;;
78120;SDS011;67585;44.802;10.332;2023-02-28T16:41:45;18.85;;;5.90;;
78120;SDS011;67585;44.802;10.332;2023-02-28T16:44:14;16.13;;;5.97;;
78120;SDS011;67585;44.802;10.332;2023-02-28T16:46:49;15.02;;;6.15;;
78120;SDS011;67585;44.802;10.332;2023-02-28T16:49:15;17.83;;;7.88;;
78120;SDS011;67585;44.802;10.332;2023-02-28T16:51:40;17.00;;;6.30;;
78120;SDS011;67585;44.802;10.332;2023-02-28T16:54:06;17.15;;;6.07;;
78120;SDS011;67585;44.802;10.332;2023-02-28T16:56:31;16.33;;;6.43;;
78120;SDS011;67585;44.802;10.332;2023-02-28T16:58:59;15.45;;;6.18;;
78120;SDS011;67585;44.802;10.332;2023-02-28T17:01:26;15.25;;;6.95;;
78120;SDS011;67585;44.802;10.332;2023-02-28T17:03:53;15.32;;;5.63;;
78120;SDS011;67585;44.802;10.332;2023-02-28T17:06:21;15.80;;;5.97;;
78120;SDS011;67585;44.802;10.332;2023-02-28T17:08:53;16.80;;;6.07;;
78120;SDS011;67585;44.802;10.332;2023-02-28T17:11:19;23.70;;;7.63;;
78120;SDS011;67585;44.802;10.332;2023-02-28T17:13:48;18.30;;;6.20;;
78120;SDS011;67585;44.802;10.332;2023-02-28T17:16:28;16.58;;;6.40;;
78120;SDS011;67585;44.802;10.332;2023-02-28T17:18:57;17.25;;;5.45;;
78120;SDS011;67585;44.802;10.332;2023-02-28T17:21:29;16.25;;;7.47;;
78120;SDS011;67585;44.802;10.332;2023-02-28T17:23:57;13.52;;;5.80;;
78120;SDS011;67585;44.802;10.332;2023-02-28T17:26:24;12.10;;;5.60;;
78120;SDS011;67585;44.802;10.332;2023-02-28T17:28:51;14.35;;;6.00;;
78120;SDS011;67585;44.802;10.332;2023-02-28T17:31:18;18.73;;;6.75;;
78120;SDS011;67585;44.802;10.332;2023-02-28T17:33:44;14.70;;;6.65;;
78120;SDS011;67585;44.802;10.332;2023-02-28T17:36:16;16.17;;;6.47;;
78120;SDS011;67585;44.802;10.332;2023-02-28T17:38:47;16.05;;;6.00;;
78120;SDS011;67585;44.802;10.332;2023-02-28T17:41:13;18.20;;;7.20;;
78120;SDS011;67585;44.802;10.332;2023-02-28T17:43:38;16.25;;;8.23;;
78120;SDS011;67585;44.802;10.332;2023-02-28T17:46:04;15.27;;;6.30;;
78120;SDS011;67585;44.802;10.332;2023-02-28T17:48:32;24.75;;;6.80;;
78120;SDS011;67585;44.802;10.332;2023-02-28T17:53:23;17.75;;;5.47;;
78120;SDS011;67585;44.802;10.332;2023-02-28T17:55:49;17.98;;;7.03;;